KHUA/HUA METAR and TAF weather

Enter ICAO airport designator
Station Type Date Time Source
KHUA METAR 2020/04/10 17:58 UTC NOAA

KHUA 101758Z AUTO 02010KT 10SM CLR 12/M03 A3009 RMK AO2 SLP190 T01161027 10116 20056 58007


Station Type Date Time Source
KHUA Decoded METAR 2020/04/10 17:58 UTC NOAA

Station name not available
Apr 10, 2020 - 01:58 PM EDT / 2020.04.10 1758 UTC
Wind: from the NNE (020 degrees) at 12 MPH (10 KT):0
Visibility: 10 mile(s):0
Sky conditions: clear
Temperature: 52.9 F (11.6 C)
Dew Point: 27.1 F (-2.7 C)
Relative Humidity: 36%
Pressure (altimeter): 30.09 in. Hg (1018 hPa)
Pressure tendency: 0.02 inches (0.7 hPa) lower than three hours ago
ob: KHUA 101758Z AUTO 02010KT 10SM CLR 12/M03 A3009 RMK AO2 SLP190 T01161027 10116 20056 58007
cycle: 18

Station Type Date Time Source
KHUA TAF UTC NOAA

Error!

Example: see airport list